createdAt,value
2023-06-19T00:01:18.678Z,97621.00
2023-06-19T00:03:47.784Z,97622.00
2023-06-19T00:06:15.458Z,97617.00
2023-06-19T00:08:43.636Z,97619.00
2023-06-19T00:11:11.358Z,97619.00
2023-06-19T00:13:39.232Z,97621.00
2023-06-19T00:16:06.916Z,97624.00
2023-06-19T00:18:40.768Z,97625.00
2023-06-19T00:21:10.354Z,97617.00
2023-06-19T00:23:38.067Z,97616.00
2023-06-19T00:26:06.106Z,97610.00
2023-06-19T00:28:33.805Z,97603.00
2023-06-19T00:31:01.488Z,97607.00
2023-06-19T00:33:30.368Z,97607.00
2023-06-19T00:35:58.098Z,97616.00
2023-06-19T00:38:27.219Z,97613.00
2023-06-19T00:40:54.896Z,97617.00
2023-06-19T00:43:22.571Z,97614.00
2023-06-19T00:45:50.307Z,97619.00
2023-06-19T00:48:18.253Z,97616.00
2023-06-19T00:50:46.170Z,97620.00
2023-06-19T00:53:14.343Z,97625.00
2023-06-19T00:55:44.436Z,97619.00
2023-06-19T00:58:12.278Z,97626.00
2023-06-19T01:00:39.992Z,97623.00
2023-06-19T01:03:07.786Z,97623.00
2023-06-19T01:05:35.614Z,97627.00
2023-06-19T01:08:11.137Z,97617.00
2023-06-19T01:10:42.414Z,97616.00
2023-06-19T01:13:18.161Z,97611.00
2023-06-19T01:15:46.536Z,97606.00
2023-06-19T01:18:14.836Z,97608.00
2023-06-19T01:20:43.101Z,97610.00
2023-06-19T01:23:13.345Z,97611.00
2023-06-19T01:25:41.464Z,97608.00
2023-06-19T01:28:13.202Z,97610.00
2023-06-19T01:30:43.917Z,97608.00
2023-06-19T01:33:17.854Z,97605.00
2023-06-19T01:35:48.912Z,97612.00
2023-06-19T01:38:19.060Z,97602.00
2023-06-19T01:40:47.598Z,97601.00
2023-06-19T01:43:15.406Z,97607.00
2023-06-19T01:45:43.410Z,97609.00
2023-06-19T01:48:11.279Z,97612.00
2023-06-19T01:50:39.005Z,97614.00
2023-06-19T01:53:06.688Z,97612.00
2023-06-19T01:55:35.803Z,97614.00
2023-06-19T01:58:03.503Z,97612.00
2023-06-19T02:00:31.666Z,97617.00
2023-06-19T02:02:59.484Z,97622.00
2023-06-19T02:05:27.204Z,97613.00
2023-06-19T02:07:55.186Z,97622.00
2023-06-19T02:10:23.209Z,97614.00
2023-06-19T02:12:52.453Z,97623.00
2023-06-19T02:15:20.139Z,97622.00
2023-06-19T02:17:48.667Z,97626.00
2023-06-19T02:20:16.599Z,97618.00
2023-06-19T02:22:44.251Z,97617.00
2023-06-19T02:25:11.903Z,97621.00
2023-06-19T02:27:39.597Z,97618.00
2023-06-19T02:30:09.913Z,97617.00
2023-06-19T02:32:37.684Z,97611.00
2023-06-19T02:35:06.870Z,97616.00
2023-06-19T02:37:37.102Z,97614.00
2023-06-19T02:40:06.164Z,97610.00
2023-06-19T02:42:34.016Z,97605.00
2023-06-19T02:45:04.383Z,97610.00
2023-06-19T02:47:34.032Z,97608.00
2023-06-19T02:50:04.250Z,97608.00
2023-06-19T02:52:32.092Z,97622.00
2023-06-19T02:55:00.247Z,97613.00
2023-06-19T02:57:28.207Z,97617.00
2023-06-19T02:59:55.892Z,97619.00
2023-06-19T03:02:23.633Z,97619.00
2023-06-19T03:04:54.354Z,97627.00
2023-06-19T03:07:22.057Z,97623.00
2023-06-19T03:09:49.698Z,97630.00
2023-06-19T03:12:17.316Z,97633.00
2023-06-19T03:14:45.036Z,97638.00
2023-06-19T03:17:12.889Z,97634.00
2023-06-19T03:19:40.597Z,97635.00
2023-06-19T03:22:09.658Z,97649.00
2023-06-19T03:24:37.402Z,97642.00
2023-06-19T03:27:05.605Z,97658.00
2023-06-19T03:29:33.363Z,97657.00
2023-06-19T03:32:01.080Z,97661.00
2023-06-19T03:34:28.767Z,97667.00
2023-06-19T03:36:56.451Z,97668.00
2023-06-19T03:39:25.691Z,97666.00
2023-06-19T03:41:53.417Z,97675.00
2023-06-19T03:44:21.087Z,97680.00
2023-06-19T03:46:49.336Z,97692.00
2023-06-19T03:49:17.191Z,97704.00
2023-06-19T03:51:45.234Z,97706.00
2023-06-19T03:54:12.903Z,97716.00
2023-06-19T03:56:41.924Z,97711.00
2023-06-19T03:59:09.634Z,97716.00
2023-06-19T04:01:37.334Z,97714.00
2023-06-19T04:04:05.243Z,97720.00
2023-06-19T04:06:32.942Z,97711.00
2023-06-19T04:09:00.573Z,97708.00
2023-06-19T04:11:28.296Z,97707.00
2023-06-19T04:13:57.304Z,97713.00
2023-06-19T04:16:25.019Z,97704.00
2023-06-19T04:18:52.727Z,97707.00
2023-06-19T04:21:20.423Z,97708.00
2023-06-19T04:23:48.094Z,97711.00
2023-06-19T04:26:15.965Z,97709.00
2023-06-19T04:28:44.224Z,97713.00
2023-06-19T04:31:13.281Z,97713.00
2023-06-19T04:33:43.061Z,97716.00
2023-06-19T04:36:11.077Z,97715.00
2023-06-19T04:38:38.928Z,97720.00
2023-06-19T04:41:06.575Z,97713.00
2023-06-19T04:43:35.162Z,97722.00
2023-06-19T04:46:04.858Z,97724.00
2023-06-19T04:48:36.696Z,97727.00
2023-06-19T04:51:04.691Z,97728.00
2023-06-19T04:53:32.422Z,97728.00
2023-06-19T04:56:02.470Z,97727.00
2023-06-19T04:58:30.857Z,97735.00
2023-06-19T05:00:58.864Z,97743.00
2023-06-19T05:03:26.715Z,97732.00
2023-06-19T05:05:55.909Z,97732.00
2023-06-19T05:08:23.584Z,97732.00
2023-06-19T05:10:51.276Z,97741.00
2023-06-19T05:13:19.876Z,97738.00
2023-06-19T05:15:47.762Z,97742.00
2023-06-19T05:18:16.234Z,97753.00
2023-06-19T05:20:44.096Z,97748.00
2023-06-19T05:23:13.412Z,97743.00
2023-06-19T05:25:41.160Z,97741.00
2023-06-19T05:28:08.825Z,97748.00
2023-06-19T05:30:37.023Z,97750.00
2023-06-19T05:33:04.948Z,97749.00
2023-06-19T05:35:33.068Z,97755.00
2023-06-19T05:38:32.012Z,97758.00
2023-06-19T05:40:59.826Z,97759.00
2023-06-19T05:43:27.881Z,97757.00
2023-06-19T05:45:57.052Z,97768.00
2023-06-19T05:48:26.236Z,97773.00
2023-06-19T05:50:54.241Z,97770.00
2023-06-19T05:53:22.019Z,97782.00
2023-06-19T05:55:51.152Z,97785.00
2023-06-19T05:58:21.198Z,97790.00
2023-06-19T06:00:49.536Z,97794.00
2023-06-19T06:03:17.421Z,97788.00
2023-06-19T06:05:49.913Z,97811.00
2023-06-19T06:08:17.814Z,97814.00
2023-06-19T06:10:45.805Z,97815.00
2023-06-19T06:13:14.876Z,97814.00
2023-06-19T06:15:42.605Z,97812.00
2023-06-19T06:18:10.378Z,97803.00
2023-06-19T06:20:38.143Z,97806.00
2023-06-19T06:23:06.443Z,97801.00
2023-06-19T06:25:34.328Z,97812.00
2023-06-19T06:28:02.121Z,97821.00
2023-06-19T06:30:31.295Z,97821.00
2023-06-19T06:32:59.341Z,97815.00
2023-06-19T06:35:27.533Z,97824.00
2023-06-19T06:37:55.389Z,97833.00
2023-06-19T06:40:23.865Z,97830.00
2023-06-19T06:42:51.655Z,97833.00
2023-06-19T06:45:19.528Z,97840.00
2023-06-19T06:47:48.695Z,97838.00
2023-06-19T06:50:16.541Z,97838.00
2023-06-19T06:52:44.275Z,97844.00
2023-06-19T06:55:12.204Z,97837.00
2023-06-19T06:57:39.980Z,97844.00
2023-06-19T07:00:11.048Z,97843.00
2023-06-19T07:02:40.506Z,97842.00
2023-06-19T07:05:11.164Z,97844.00
2023-06-19T07:07:39.106Z,97844.00
2023-06-19T07:10:07.984Z,97844.00
2023-06-19T07:12:35.717Z,97844.00
2023-06-19T07:15:03.431Z,97843.00
2023-06-19T07:17:31.310Z,97851.00
2023-06-19T07:19:58.974Z,97858.00
2023-06-19T07:22:28.230Z,97852.00
2023-06-19T07:24:55.954Z,97849.00
2023-06-19T07:27:23.893Z,97857.00
2023-06-19T07:29:51.861Z,97853.00
2023-06-19T07:32:19.622Z,97864.00
2023-06-19T07:34:48.211Z,97858.00
2023-06-19T07:37:18.749Z,97869.00
2023-06-19T07:39:47.933Z,97861.00
2023-06-19T07:42:16.528Z,97871.00
2023-06-19T07:44:44.538Z,97874.00
2023-06-19T07:47:12.477Z,97866.00
2023-06-19T07:49:40.284Z,97869.00
2023-06-19T07:52:10.938Z,97856.00
2023-06-19T07:54:39.389Z,97867.00
2023-06-19T07:57:09.170Z,97873.00
2023-06-19T07:59:37.367Z,97870.00
2023-06-19T08:02:05.263Z,97877.00
2023-06-19T08:04:34.763Z,97883.00
2023-06-19T08:07:02.791Z,97883.00
2023-06-19T08:09:30.532Z,97886.00
2023-06-19T08:11:59.288Z,97890.00
2023-06-19T08:14:28.485Z,97891.00
2023-06-19T08:16:56.794Z,97892.00
2023-06-19T08:19:24.637Z,97891.00
2023-06-19T08:21:53.078Z,97885.00
2023-06-19T08:24:20.864Z,97895.00
2023-06-19T08:26:52.002Z,97894.00
2023-06-19T08:29:20.011Z,97894.00
2023-06-19T08:31:49.084Z,97898.00
2023-06-19T08:34:17.073Z,97891.00
2023-06-19T08:36:44.903Z,97895.00
2023-06-19T08:39:12.694Z,97895.00
2023-06-19T08:41:42.252Z,97897.00
2023-06-19T08:44:10.935Z,97895.00
2023-06-19T08:46:39.365Z,97898.00
2023-06-19T08:49:11.761Z,97901.00
2023-06-19T08:51:40.143Z,97900.00
2023-06-19T08:54:09.631Z,97896.00
2023-06-19T08:56:38.789Z,97892.00
2023-06-19T08:59:14.251Z,97891.00
2023-06-19T09:01:42.196Z,97889.00
2023-06-19T09:04:12.779Z,97892.00
2023-06-19T09:06:51.800Z,97898.00
2023-06-19T09:09:21.592Z,97897.00
2023-06-19T09:11:59.668Z,97899.00
2023-06-19T09:14:34.466Z,97895.00
2023-06-19T09:17:03.664Z,97893.00
2023-06-19T09:19:35.833Z,97891.00
2023-06-19T09:22:04.492Z,97892.00
2023-06-19T09:24:36.942Z,97885.00
2023-06-19T09:27:09.911Z,97880.00
2023-06-19T09:29:39.722Z,97877.00
2023-06-19T09:32:26.079Z,97880.00
2023-06-19T09:34:56.584Z,97882.00
2023-06-19T09:37:26.193Z,97876.00
2023-06-19T09:39:55.029Z,97876.00
2023-06-19T09:42:28.375Z,97876.00
2023-06-19T09:45:00.540Z,97872.00
2023-06-19T09:47:32.968Z,97877.00
2023-06-19T09:50:04.154Z,97870.00
2023-06-19T09:52:32.244Z,97870.00
2023-06-19T09:55:03.761Z,97870.00
2023-06-19T09:57:32.174Z,97869.00
2023-06-19T10:00:06.944Z,97868.00
2023-06-19T10:02:34.737Z,97870.00
2023-06-19T10:05:04.132Z,97871.00
2023-06-19T10:07:36.014Z,97874.00
2023-06-19T10:10:07.338Z,97869.00
2023-06-19T10:12:43.128Z,97869.00
2023-06-19T10:15:16.965Z,97866.00
2023-06-19T10:17:49.777Z,97861.00
2023-06-19T10:20:25.547Z,97864.00
2023-06-19T10:22:54.949Z,97861.00
2023-06-19T10:25:24.540Z,97863.00
2023-06-19T10:27:54.158Z,97861.00
2023-06-19T10:30:22.309Z,97854.00
2023-06-19T10:32:50.913Z,97853.00
2023-06-19T10:35:22.469Z,97853.00
2023-06-19T10:37:51.703Z,97853.00
2023-06-19T10:40:19.833Z,97849.00
2023-06-19T10:42:48.208Z,97846.00
2023-06-19T10:45:21.861Z,97846.00
2023-06-19T10:47:50.242Z,97843.00
2023-06-19T10:50:17.998Z,97842.00
2023-06-19T10:52:46.584Z,97832.00
2023-06-19T10:55:16.502Z,97826.00
2023-06-19T10:57:47.482Z,97831.00
2023-06-19T11:00:25.342Z,97822.00
2023-06-19T11:02:53.605Z,97830.00
2023-06-19T11:05:25.250Z,97830.00
2023-06-19T11:07:54.309Z,97829.00
2023-06-19T11:10:25.189Z,97830.00
2023-06-19T11:12:56.367Z,97828.00
2023-06-19T11:15:30.912Z,97819.00
2023-06-19T11:17:59.264Z,97819.00
2023-06-19T11:20:27.559Z,97820.00
2023-06-19T11:23:00.157Z,97821.00
2023-06-19T11:25:38.344Z,97815.00
2023-06-19T11:28:06.418Z,97815.00
2023-06-19T11:30:36.651Z,97812.00
2023-06-19T11:33:04.514Z,97811.00
2023-06-19T11:35:37.379Z,97809.00
2023-06-19T11:38:05.446Z,97811.00
2023-06-19T11:40:42.839Z,97807.00
2023-06-19T11:43:11.004Z,97804.00
2023-06-19T11:45:48.483Z,97805.00
2023-06-19T11:48:16.465Z,97804.00
2023-06-19T11:50:44.184Z,97797.00
2023-06-19T11:53:12.007Z,97797.00
2023-06-19T11:55:39.820Z,97789.00
2023-06-19T11:58:09.055Z,97783.00
2023-06-19T12:00:38.537Z,97782.00
2023-06-19T12:03:06.687Z,97783.00
2023-06-19T12:05:34.487Z,97782.00
2023-06-19T12:08:03.850Z,97782.00
2023-06-19T12:10:31.601Z,97770.00
2023-06-19T12:12:59.392Z,97778.00
2023-06-19T12:15:29.060Z,97773.00
2023-06-19T12:17:59.167Z,97769.00
2023-06-19T12:20:28.783Z,97767.00
2023-06-19T12:22:57.222Z,97766.00
2023-06-19T12:25:24.965Z,97774.00
2023-06-19T12:27:55.407Z,97767.00
2023-06-19T12:30:24.902Z,97767.00
2023-06-19T12:32:54.554Z,97769.00
2023-06-19T12:35:24.247Z,97774.00
2023-06-19T12:37:52.016Z,97770.00
2023-06-19T12:40:19.774Z,97769.00
2023-06-19T12:42:47.979Z,97770.00
2023-06-19T12:45:15.959Z,97762.00
2023-06-19T12:47:43.949Z,97760.00
2023-06-19T12:50:13.407Z,97761.00
2023-06-19T12:52:41.257Z,97766.00
2023-06-19T12:55:10.040Z,97770.00
2023-06-19T12:57:38.191Z,97767.00
2023-06-19T13:00:09.089Z,97762.00
2023-06-19T13:02:36.920Z,97760.00
2023-06-19T13:05:04.766Z,97769.00
2023-06-19T13:07:33.774Z,97772.00
2023-06-19T13:10:01.584Z,97761.00
2023-06-19T13:12:29.244Z,97762.00
2023-06-19T13:14:56.936Z,97760.00
2023-06-19T13:17:24.935Z,97754.00
2023-06-19T13:19:52.681Z,97769.00
2023-06-19T13:22:22.356Z,97755.00
2023-06-19T13:24:53.919Z,97753.00
2023-06-19T13:27:21.733Z,97757.00
2023-06-19T13:29:49.476Z,97755.00
2023-06-19T13:32:17.312Z,97748.00
2023-06-19T13:34:45.110Z,97745.00
2023-06-19T13:37:12.825Z,97750.00
2023-06-19T13:39:41.681Z,97746.00
2023-06-19T13:42:12.401Z,97745.00
2023-06-19T13:44:40.464Z,97740.00
2023-06-19T13:47:09.113Z,97740.00
2023-06-19T13:49:36.915Z,97733.00
2023-06-19T13:52:04.990Z,97741.00
2023-06-19T13:54:32.715Z,97733.00
2023-06-19T13:57:00.562Z,97723.00
2023-06-19T13:59:29.708Z,97737.00
2023-06-19T14:01:57.490Z,97741.00
2023-06-19T14:04:25.173Z,97737.00
2023-06-19T14:06:52.865Z,97736.00
2023-06-19T14:09:20.599Z,97738.00
2023-06-19T14:11:48.365Z,97732.00
2023-06-19T14:14:16.191Z,97732.00
2023-06-19T14:16:45.315Z,97734.00
2023-06-19T14:19:13.153Z,97730.00
2023-06-19T14:21:40.833Z,97740.00
2023-06-19T14:24:08.654Z,97736.00
2023-06-19T14:26:36.485Z,97739.00
2023-06-19T14:29:04.253Z,97744.00
2023-06-19T14:31:31.934Z,97736.00
2023-06-19T14:34:00.985Z,97735.00
2023-06-19T14:36:30.106Z,97743.00
2023-06-19T14:38:57.854Z,97743.00
2023-06-19T14:41:25.680Z,97741.00
2023-06-19T14:43:53.534Z,97754.00
2023-06-19T14:46:37.305Z,97754.00
2023-06-19T14:49:08.479Z,97768.00
2023-06-19T14:51:36.345Z,97779.00
2023-06-19T14:54:04.537Z,97786.00
2023-06-19T14:56:32.410Z,97791.00
2023-06-19T14:59:00.226Z,97797.00
2023-06-19T15:01:28.192Z,97791.00
2023-06-19T15:03:56.081Z,97784.00
2023-06-19T15:06:25.182Z,97775.00
2023-06-19T15:08:53.026Z,97772.00
2023-06-19T15:11:20.760Z,97788.00
2023-06-19T15:13:48.562Z,97787.00
2023-06-19T15:16:16.280Z,97791.00
2023-06-19T15:18:45.275Z,97783.00
2023-06-19T15:21:12.946Z,97788.00
2023-06-19T15:23:42.090Z,97788.00
2023-06-19T15:26:09.831Z,97774.00
2023-06-19T15:28:37.854Z,97772.00
2023-06-19T15:31:05.699Z,97761.00
2023-06-19T15:33:33.719Z,97765.00
2023-06-19T15:36:01.410Z,97762.00
2023-06-19T15:38:29.104Z,97765.00
2023-06-19T15:40:58.820Z,97773.00
2023-06-19T15:43:29.673Z,97760.00
2023-06-19T15:45:57.737Z,97752.00
2023-06-19T15:48:26.338Z,97745.00
2023-06-19T15:50:54.147Z,97733.00
2023-06-19T15:53:21.858Z,97726.00
2023-06-19T15:55:49.666Z,97722.00
2023-06-19T15:58:18.824Z,97720.00
2023-06-19T16:00:49.141Z,97712.00
2023-06-19T16:03:17.115Z,97706.00
2023-06-19T16:06:01.799Z,97708.00
2023-06-19T16:08:34.602Z,97701.00
2023-06-19T16:11:04.351Z,97701.00
2023-06-19T16:13:33.557Z,97693.00
2023-06-19T16:16:02.022Z,97694.00
2023-06-19T16:18:29.742Z,97685.00
2023-06-19T16:20:57.535Z,97687.00
2023-06-19T16:23:25.848Z,97685.00
2023-06-19T16:25:53.715Z,97690.00
2023-06-19T16:28:21.585Z,97692.00
2023-06-19T16:30:50.613Z,97697.00
2023-06-19T16:33:18.756Z,97698.00
2023-06-19T16:35:46.838Z,97696.00
2023-06-19T16:38:14.567Z,97699.00
2023-06-19T16:40:42.288Z,97693.00
2023-06-19T16:43:11.592Z,97696.00
2023-06-19T16:45:39.386Z,97697.00
2023-06-19T16:48:08.475Z,97690.00
2023-06-19T16:50:36.523Z,97683.00
2023-06-19T16:53:06.999Z,97690.00
2023-06-19T16:55:34.915Z,97689.00
2023-06-19T16:58:03.456Z,97691.00
2023-06-19T17:00:32.369Z,97697.00
2023-06-19T17:03:00.659Z,97691.00
2023-06-19T17:05:29.794Z,97689.00
2023-06-19T17:07:57.491Z,97700.00
2023-06-19T17:10:25.556Z,97686.00
2023-06-19T17:12:53.503Z,97688.00
2023-06-19T17:15:21.263Z,97688.00
2023-06-19T17:17:48.991Z,97694.00
2023-06-19T17:20:16.823Z,97688.00
2023-06-19T17:22:46.043Z,97695.00
2023-06-19T17:25:13.759Z,97693.00
2023-06-19T17:27:41.523Z,97695.00
2023-06-19T17:30:11.574Z,97696.00
2023-06-19T17:32:39.363Z,97685.00
2023-06-19T17:35:10.403Z,97684.00
2023-06-19T17:37:38.680Z,97684.00
2023-06-19T17:40:11.426Z,97678.00
2023-06-19T17:42:39.254Z,97677.00
2023-06-19T17:45:08.165Z,97686.00
2023-06-19T17:47:36.066Z,97683.00
2023-06-19T17:50:03.925Z,97691.00
2023-06-19T17:52:32.014Z,97702.00
2023-06-19T17:54:59.741Z,97704.00
2023-06-19T17:57:28.777Z,97699.00
2023-06-19T17:59:56.530Z,97700.00
2023-06-19T18:02:24.754Z,97696.00
2023-06-19T18:04:52.791Z,97706.00
2023-06-19T18:07:20.615Z,97702.00
2023-06-19T18:09:48.662Z,97709.00
2023-06-19T18:12:18.214Z,97706.00
2023-06-19T18:14:47.331Z,97709.00
2023-06-19T18:17:16.394Z,97705.00
2023-06-19T18:19:44.261Z,97715.00
2023-06-19T18:22:12.323Z,97707.00
2023-06-19T18:24:40.120Z,97692.00
2023-06-19T18:27:08.813Z,97692.00
2023-06-19T18:29:36.851Z,97693.00
2023-06-19T18:32:06.826Z,97700.00
2023-06-19T18:34:34.585Z,97701.00
2023-06-19T18:37:02.320Z,97696.00
2023-06-19T18:39:30.333Z,97698.00
2023-06-19T18:41:58.098Z,97697.00
2023-06-19T18:44:25.794Z,97705.00
2023-06-19T18:46:53.539Z,97698.00
2023-06-19T18:49:22.776Z,97712.00
2023-06-19T18:51:50.575Z,97711.00
2023-06-19T18:54:18.361Z,97711.00
2023-06-19T18:56:46.229Z,97711.00
2023-06-19T18:59:14.251Z,97711.00
2023-06-19T19:01:42.085Z,97715.00
2023-06-19T19:04:09.979Z,97713.00
2023-06-19T19:06:39.060Z,97714.00
2023-06-19T19:09:08.170Z,97717.00
2023-06-19T19:11:35.927Z,97718.00
2023-06-19T19:14:03.672Z,97717.00
2023-06-19T19:16:31.557Z,97715.00
2023-06-19T19:18:59.366Z,97716.00
2023-06-19T19:21:27.091Z,97720.00
2023-06-19T19:23:56.304Z,97723.00
2023-06-19T19:26:24.308Z,97717.00
2023-06-19T19:28:52.066Z,97714.00
2023-06-19T19:31:19.888Z,97716.00
2023-06-19T19:33:47.686Z,97716.00
2023-06-19T19:36:15.761Z,97715.00
2023-06-19T19:38:43.805Z,97713.00
2023-06-19T19:41:13.021Z,97713.00
2023-06-19T19:43:40.788Z,97723.00
2023-06-19T19:46:08.608Z,97719.00
2023-06-19T19:48:36.343Z,97722.00
2023-06-19T19:51:04.376Z,97718.00
2023-06-19T19:53:32.131Z,97727.00
2023-06-19T19:56:00.123Z,97726.00
2023-06-19T19:58:29.195Z,97730.00
2023-06-19T20:00:56.975Z,97734.00
2023-06-19T20:03:24.780Z,97739.00
2023-06-19T20:05:52.536Z,97749.00
2023-06-19T20:08:20.367Z,97739.00
2023-06-19T20:10:48.143Z,97742.00
2023-06-19T20:13:16.079Z,97746.00
2023-06-19T20:15:47.813Z,97743.00
2023-06-19T20:18:15.919Z,97742.00
2023-06-19T20:20:43.642Z,97756.00
2023-06-19T20:23:11.361Z,97752.00
2023-06-19T20:25:39.169Z,97758.00
2023-06-19T20:28:08.562Z,97753.00
2023-06-19T20:30:36.950Z,97759.00
2023-06-19T20:33:06.260Z,97759.00
2023-06-19T20:35:34.476Z,97758.00
2023-06-19T20:38:02.176Z,97767.00
2023-06-19T20:40:30.106Z,97759.00
2023-06-19T20:42:57.874Z,97761.00
2023-06-19T20:45:27.622Z,97766.00
2023-06-19T20:47:55.791Z,97760.00
2023-06-19T20:50:25.722Z,97756.00
2023-06-19T20:52:54.020Z,97759.00
2023-06-19T20:55:21.906Z,97754.00
2023-06-19T20:57:50.111Z,97755.00
2023-06-19T21:00:18.413Z,97755.00
2023-06-19T21:02:46.284Z,97755.00
2023-06-19T21:05:16.528Z,97753.00
2023-06-19T21:07:47.087Z,97748.00
2023-06-19T21:10:15.166Z,97752.00
2023-06-19T21:12:43.320Z,97752.00
2023-06-19T21:15:11.948Z,97749.00
2023-06-19T21:17:39.761Z,97756.00
2023-06-19T21:20:10.530Z,97758.00
2023-06-19T21:22:38.699Z,97758.00
2023-06-19T21:25:08.853Z,97765.00
2023-06-19T21:27:36.918Z,97759.00
2023-06-19T21:30:05.347Z,97757.00
2023-06-19T21:32:33.139Z,97758.00
2023-06-19T21:35:00.864Z,97756.00
2023-06-19T21:37:29.729Z,97765.00
2023-06-19T21:39:57.463Z,97759.00
2023-06-19T21:42:26.760Z,97757.00
2023-06-19T21:44:54.416Z,97751.00
2023-06-19T21:47:22.378Z,97751.00
2023-06-19T21:49:50.166Z,97746.00
2023-06-19T21:52:18.134Z,97736.00
2023-06-19T21:54:45.965Z,97735.00
2023-06-19T21:57:13.690Z,97740.00
2023-06-19T21:59:42.892Z,97738.00
2023-06-19T22:02:11.866Z,97739.00
2023-06-19T22:04:39.627Z,97735.00
2023-06-19T22:07:07.781Z,97739.00
2023-06-19T22:09:35.453Z,97738.00
2023-06-19T22:12:03.522Z,97740.00
2023-06-19T22:14:31.236Z,97729.00
2023-06-19T22:17:00.225Z,97733.00
2023-06-19T22:19:27.911Z,97733.00
2023-06-19T22:21:55.677Z,97733.00
2023-06-19T22:24:23.714Z,97733.00
2023-06-19T22:26:51.514Z,97725.00
2023-06-19T22:29:19.285Z,97730.00
2023-06-19T22:31:47.216Z,97722.00
2023-06-19T22:34:16.838Z,97725.00
2023-06-19T22:36:44.530Z,97725.00
2023-06-19T22:39:12.402Z,97734.00
2023-06-19T22:41:40.873Z,97732.00
2023-06-19T22:44:08.717Z,97736.00
2023-06-19T22:46:36.629Z,97737.00
2023-06-19T22:49:04.979Z,97716.00
2023-06-19T22:51:36.345Z,97718.00
2023-06-19T22:54:04.132Z,97714.00
2023-06-19T22:56:31.891Z,97705.00
2023-06-19T22:58:59.581Z,97703.00
2023-06-19T23:01:31.411Z,97697.00
2023-06-19T23:03:59.284Z,97695.00
2023-06-19T23:06:27.740Z,97699.00
2023-06-19T23:08:56.889Z,97694.00
2023-06-19T23:11:24.614Z,97685.00
2023-06-19T23:13:52.261Z,97691.00
2023-06-19T23:16:19.928Z,97687.00
2023-06-19T23:18:47.891Z,97689.00
2023-06-19T23:21:17.398Z,97693.00
2023-06-19T23:23:48.056Z,97684.00
2023-06-19T23:26:24.744Z,97683.00
2023-06-19T23:28:52.730Z,97680.00
2023-06-19T23:31:22.281Z,97674.00
2023-06-19T23:33:51.942Z,97661.00
2023-06-19T23:36:19.731Z,97658.00
2023-06-19T23:38:49.151Z,97650.00
2023-06-19T23:41:19.593Z,97647.00
2023-06-19T23:43:47.286Z,97650.00
2023-06-19T23:46:15.863Z,97643.00
2023-06-19T23:48:43.604Z,97655.00
2023-06-19T23:51:11.275Z,97654.00
2023-06-19T23:53:39.005Z,97658.00
2023-06-19T23:56:06.705Z,97650.00
2023-06-19T23:58:35.962Z,97649.00
